Time;durP1;ratioP1;P1;durP2;ratioP2;P2;SDS_P1;SDS_P2;PMS_P1;PMS_P2;Temp;Humidity;BMP_temperature;BMP_pressure;BME280_temperature;BME280_humidity;BME280_pressure;Samples;Min_cycle;Max_cycle;Signal;HPM_P1;HPM_P2
2023/12/31 17:02:53;;;;;;;20.15;10.60;;;6.50;99.90;;;;;;7608226;19;20362;-72
2023/12/31 17:05:27;;;;;;;20.42;11.93;;;6.50;99.90;;;;;;7617523;19;20006;-73
2023/12/31 17:07:59;;;;;;;;;;;6.50;99.90;;;;;;7592750;19;20018;-72
2023/12/31 17:10:32;;;;;;;6.90;4.35;;;6.40;99.90;;;;;;7599224;19;19918;-73
2023/12/31 17:13:06;;;;;;;5.10;2.83;;;6.30;99.90;;;;;;7593520;19;20593;-70
2023/12/31 17:15:39;;;;;;;3.92;2.63;;;6.30;99.90;;;;;;7586694;19;20098;-72
2023/12/31 17:18:11;;;;;;;6.45;4.25;;;6.20;99.90;;;;;;7586555;19;20010;-72
2023/12/31 17:20:43;;;;;;;11.38;6.68;;;6.10;99.90;;;;;;7591759;19;20018;-71
2023/12/31 17:23:17;;;;;;;9.18;4.88;;;5.60;99.90;;;;;;7584013;19;21134;-73
2023/12/31 17:25:49;;;;;;;9.23;4.03;;;6.00;99.90;;;;;;7596926;19;20535;-73
2023/12/31 17:28:26;;;;;;;5.57;2.70;;;5.90;99.90;;;;;;7573579;19;20014;-73
2023/12/31 17:30:59;;;;;;;5.82;3.17;;;5.70;99.90;;;;;;7573345;19;21008;-73
2023/12/31 17:33:34;;;;;;;4.90;2.92;;;5.70;99.90;;;;;;7614245;19;20006;-73
2023/12/31 17:36:07;;;;;;;3.60;1.50;;;5.60;99.90;;;;;;7590722;19;20912;-73
2023/12/31 17:38:39;;;;;;;7.03;3.20;;;5.50;99.90;;;;;;7576228;19;20033;-73
2023/12/31 17:41:15;;;;;;;114.22;79.60;;;5.30;99.90;;;;;;7590386;19;20018;-75
2023/12/31 17:43:47;;;;;;;12.18;7.28;;;5.30;99.90;;;;;;7589612;19;20052;-73
2023/12/31 17:46:19;;;;;;;7.88;3.53;;;5.30;99.90;;;;;;7597952;19;20022;-75
2023/12/31 17:48:51;;;;;;;5.50;2.13;;;5.20;99.90;;;;;;7593517;19;20054;-75
2023/12/31 17:51:24;;;;;;;432.80;284.30;;;5.20;99.90;;;;;;7598678;19;20443;-73
2023/12/31 17:53:56;;;;;;;40.63;22.02;;;5.10;99.90;;;;;;7594986;19;20021;-74
2023/12/31 17:56:28;;;;;;;3.83;2.33;;;5.10;99.90;;;;;;7604962;19;20014;-73
2023/12/31 17:59:00;;;;;;;2.90;2.00;;;5.00;99.90;;;;;;7573250;19;20010;-73
2023/12/31 18:01:34;;;;;;;5.35;2.22;;;5.00;99.90;;;;;;7601706;19;20105;-71
2023/12/31 18:04:08;;;;;;;6.25;2.25;;;4.90;99.90;;;;;;7591602;19;20029;-73
2023/12/31 18:06:41;;;;;;;6.47;3.20;;;4.90;99.90;;;;;;7571186;19;20886;-72
2023/12/31 18:09:13;;;;;;;5.45;3.05;;;4.90;99.90;;;;;;7520066;19;20615;-72
2023/12/31 18:11:46;;;;;;;5.55;3.30;;;4.80;99.90;;;;;;7550714;19;20021;-75
2023/12/31 18:14:18;;;;;;;8.13;4.78;;;4.70;99.90;;;;;;7548052;19;20109;-70
2023/12/31 18:16:50;;;;;;;12.55;5.47;;;4.70;99.90;;;;;;7534141;19;20014;-72
2023/12/31 18:19:23;;;;;;;4.75;2.70;;;4.60;99.90;;;;;;7547451;19;20017;-73
2023/12/31 18:21:56;;;;;;;4.68;2.80;;;4.60;99.90;;;;;;7527107;19;23241;-72
2023/12/31 18:24:30;;;;;;;7.13;4.30;;;4.60;99.90;;;;;;7539992;19;20511;-71
2023/12/31 18:27:02;;;;;;;5.68;2.88;;;4.70;99.90;;;;;;7548122;19;20025;-72
2023/12/31 18:29:34;;;;;;;8.25;3.90;;;4.80;99.90;;;;;;7545633;19;20052;-71
2023/12/31 18:32:07;;;;;;;6.93;2.63;;;4.70;99.90;;;;;;7546970;19;20022;-71
2023/12/31 18:34:40;;;;;;;5.55;2.90;;;4.70;99.90;;;;;;7543827;19;20010;-72
2023/12/31 18:37:13;;;;;;;7.50;3.50;;;4.70;99.90;;;;;;7532661;19;20022;-72
2023/12/31 18:39:45;;;;;;;8.23;4.53;;;4.60;99.90;;;;;;7539676;19;20011;-71
2023/12/31 18:42:20;;;;;;;7.38;4.22;;;4.60;99.90;;;;;;7543830;19;20015;-71
2023/12/31 18:44:53;;;;;;;7.20;3.90;;;4.50;99.90;;;;;;7549999;19;20010;-71
2023/12/31 18:47:25;;;;;;;6.75;3.83;;;4.50;99.90;;;;;;7563210;19;20022;-72
2023/12/31 18:49:57;;;;;;;8.60;4.00;;;4.50;99.90;;;;;;7557214;19;21163;-71
2023/12/31 18:52:30;;;;;;;6.30;3.80;;;4.60;99.90;;;;;;7558498;19;20019;-71
2023/12/31 18:55:03;;;;;;;;;;;4.50;99.90;;;;;;7534165;19;20014;-71
2023/12/31 18:57:36;;;;;;;11.98;5.60;;;4.40;99.90;;;;;;7546249;19;20553;-71
2023/12/31 19:00:09;;;;;;;7.70;4.25;;;4.30;99.90;;;;;;7544280;19;20022;-72
2023/12/31 19:02:42;;;;;;;6.10;4.05;;;4.40;99.90;;;;;;7553031;19;20580;-72
2023/12/31 19:05:14;;;;;;;7.25;4.72;;;4.30;99.90;;;;;;7546500;19;20032;-69
2023/12/31 19:07:50;;;;;;;5.85;3.28;;;4.50;99.90;;;;;;7539060;19;20014;-70
2023/12/31 19:10:23;;;;;;;7.10;3.95;;;4.50;99.90;;;;;;7556187;19;20796;-69
2023/12/31 19:12:55;;;;;;;10.40;5.25;;;4.40;99.90;;;;;;7552484;19;20078;-70
2023/12/31 19:15:28;;;;;;;9.68;5.75;;;4.50;99.90;;;;;;7545951;19;20325;-69
2023/12/31 19:18:00;;;;;;;10.57;5.10;;;4.40;99.90;;;;;;7554233;19;20018;-69
2023/12/31 19:20:33;;;;;;;7.93;4.63;;;4.50;99.90;;;;;;7559832;19;20105;-70
2023/12/31 19:23:06;;;;;;;14.50;7.03;;;4.50;99.90;;;;;;7543277;19;21067;-70
2023/12/31 19:25:38;;;;;;;10.68;5.95;;;4.50;99.90;;;;;;7561500;19;20013;-70
2023/12/31 19:28:10;;;;;;;15.93;9.82;;;4.50;99.90;;;;;;7534555;19;20056;-71
2023/12/31 19:30:44;;;;;;;19.47;10.93;;;4.40;99.90;;;;;;7530861;19;20145;-70
2023/12/31 19:33:16;;;;;;;26.83;12.85;;;4.40;99.90;;;;;;7552136;19;20295;-70
2023/12/31 19:35:49;;;;;;;14.85;8.27;;;4.40;99.90;;;;;;7559687;19;21777;-70
2023/12/31 19:38:22;;;;;;;11.70;6.40;;;4.50;99.90;;;;;;7570411;19;20026;-70
2023/12/31 19:40:55;;;;;;;34.75;17.30;;;4.40;99.90;;;;;;7554063;19;20006;-70
2023/12/31 19:43:32;;;;;;;41.10;22.20;;;4.40;99.90;;;;;;7538909;19;20042;-71
2023/12/31 19:46:26;;;;;;;32.03;16.15;;;4.50;99.90;;;;;;7518493;19;20252;-70
2023/12/31 19:48:58;;;;;;;37.38;20.17;;;4.40;99.90;;;;;;7506168;19;20037;-72
2023/12/31 19:51:32;;;;;;;6.95;3.90;;;4.40;99.90;;;;;;7542501;19;20019;-69
2023/12/31 19:54:05;;;;;;;;;;;4.40;99.90;;;;;;7557893;19;21089;-70
2023/12/31 19:56:38;;;;;;;12.53;6.93;;;4.40;99.90;;;;;;7546172;19;19930;-72
2023/12/31 19:59:12;;;;;;;7.22;4.57;;;4.20;99.90;;;;;;7551629;19;20044;-70
2023/12/31 20:01:44;;;;;;;16.67;8.82;;;4.30;99.90;;;;;;7539688;19;20026;-70
2023/12/31 20:04:17;;;;;;;14.48;8.40;;;4.30;99.90;;;;;;7535252;19;20953;-69
2023/12/31 20:06:53;;;;;;;25.90;14.50;;;4.40;99.90;;;;;;7561573;19;20013;-70
2023/12/31 20:09:25;;;;;;;392.42;261.23;;;4.30;99.90;;;;;;7555709;19;20464;-70
2023/12/31 20:12:00;;;;;;;95.07;47.72;;;4.30;99.90;;;;;;7552090;19;20530;-70
2023/12/31 20:14:32;;;;;;;70.55;44.63;;;4.30;99.90;;;;;;7562838;19;20105;-71
2023/12/31 20:17:05;;;;;;;75.65;36.80;;;4.30;99.90;;;;;;7539470;19;20778;-71
2023/12/31 20:19:38;;;;;;;103.35;65.75;;;4.30;99.90;;;;;;7555252;19;20022;-70
2023/12/31 20:22:14;;;;;;;15.77;8.13;;;4.30;99.90;;;;;;7532458;19;20015;-71
2023/12/31 20:24:47;;;;;;;17.23;9.30;;;4.40;99.90;;;;;;7552490;19;20913;-70
2023/12/31 20:27:20;;;;;;;41.60;23.65;;;4.40;99.90;;;;;;7545492;19;20331;-70
2023/12/31 20:29:54;;;;;;;23.60;13.97;;;4.40;99.90;;;;;;7518836;19;20011;-70
2023/12/31 20:32:26;;;;;;;22.20;10.15;;;4.40;99.90;;;;;;7551350;19;20278;-71
2023/12/31 20:35:01;;;;;;;16.13;9.07;;;4.30;99.90;;;;;;7536233;19;20018;-70
2023/12/31 20:37:34;;;;;;;17.35;9.20;;;4.30;99.90;;;;;;7536372;19;20056;-70
2023/12/31 20:40:07;;;;;;;15.25;9.10;;;4.40;99.90;;;;;;7536608;19;20014;-71
2023/12/31 20:42:40;;;;;;;19.27;9.50;;;4.40;99.90;;;;;;7537605;19;20025;-70
2023/12/31 20:45:16;;;;;;;14.43;8.30;;;4.30;99.90;;;;;;7528876;19;20812;-71
2023/12/31 20:47:51;;;;;;;12.75;7.35;;;4.30;99.90;;;;;;7524315;19;20014;-70
2023/12/31 20:50:25;;;;;;;10.13;5.22;;;4.30;99.90;;;;;;7499841;19;20912;-71
2023/12/31 20:52:58;;;;;;;13.68;6.32;;;4.30;99.90;;;;;;7532514;19;21582;-74
2023/12/31 20:55:32;;;;;;;15.43;8.30;;;4.30;99.90;;;;;;7526311;19;20626;-72
2023/12/31 20:58:05;;;;;;;11.98;6.95;;;4.30;99.90;;;;;;7529128;19;20015;-72
2023/12/31 21:00:37;;;;;;;17.00;7.38;;;4.40;99.90;;;;;;7522012;19;20577;-72
2023/12/31 21:03:10;;;;;;;12.18;7.53;;;4.30;99.90;;;;;;7530393;19;20014;-72
2023/12/31 21:05:43;;;;;;;17.25;8.68;;;4.30;99.90;;;;;;7537542;19;21297;-72
2023/12/31 21:08:20;;;;;;;17.63;9.85;;;4.40;99.90;;;;;;7528367;19;20021;-71
2023/12/31 21:10:53;;;;;;;24.73;12.65;;;4.30;99.90;;;;;;7537855;19;20034;-72
2023/12/31 21:13:26;;;;;;;31.40;13.55;;;4.40;99.90;;;;;;7539893;19;20020;-73
2023/12/31 21:15:58;;;;;;;41.33;20.30;;;4.40;99.90;;;;;;7527450;19;20029;-72
2023/12/31 21:18:35;;;;;;;52.75;24.38;;;4.40;99.90;;;;;;7533815;19;20391;-72
2023/12/31 21:21:07;;;;;;;31.48;16.92;;;4.40;99.90;;;;;;7525037;19;20014;-73
2023/12/31 21:23:40;;;;;;;27.97;13.17;;;4.50;99.90;;;;;;7535441;19;20014;-70
2023/12/31 21:26:17;;;;;;;18.60;9.07;;;4.50;99.90;;;;;;7542095;19;20018;-69
2023/12/31 21:28:53;;;;;;;16.02;7.50;;;4.50;99.90;;;;;;7490055;19;20837;-71
2023/12/31 21:31:28;;;;;;;13.50;7.40;;;4.40;99.90;;;;;;7481388;19;20021;-73
2023/12/31 21:34:01;;;;;;;19.77;9.60;;;4.40;99.90;;;;;;7530502;19;20097;-72
2023/12/31 21:36:39;;;;;;;16.92;8.88;;;4.40;99.90;;;;;;7547001;19;20019;-72
2023/12/31 21:39:13;;;;;;;20.75;11.75;;;4.30;99.90;;;;;;7527884;19;20018;-71
2023/12/31 21:41:47;;;;;;;35.08;17.60;;;4.30;99.90;;;;;;7534865;19;20018;-71
2023/12/31 21:44:19;;;;;;;28.92;14.30;;;4.30;99.90;;;;;;7521308;19;20014;-72
2023/12/31 21:46:52;;;;;;;35.35;16.95;;;4.30;99.90;;;;;;7534193;19;20015;-71
2023/12/31 21:49:25;;;;;;;41.88;20.00;;;4.40;99.90;;;;;;7534760;19;20106;-71
2023/12/31 21:51:58;;;;;;;42.50;22.50;;;4.40;99.90;;;;;;7555310;19;20843;-70
2023/12/31 21:54:31;;;;;;;;;;;4.40;99.90;;;;;;7547810;19;20287;-72
2023/12/31 21:57:03;;;;;;;55.60;27.55;;;4.40;99.90;;;;;;7546054;19;19926;-71
2023/12/31 21:59:39;;;;;;;54.88;28.73;;;4.40;99.90;;;;;;7551835;19;25920;-71
2023/12/31 22:02:12;;;;;;;61.92;30.38;;;4.40;99.90;;;;;;7533419;19;20037;-72
2023/12/31 22:04:45;;;;;;;62.53;31.00;;;4.40;99.90;;;;;;7574049;19;20014;-72
2023/12/31 22:07:19;;;;;;;70.82;36.40;;;4.40;99.90;;;;;;7567904;19;20015;-71
2023/12/31 22:09:52;;;;;;;64.63;35.95;;;4.40;99.90;;;;;;7508178;19;20902;-71
2023/12/31 22:12:24;;;;;;;57.07;29.30;;;4.50;99.90;;;;;;7552176;19;20007;-71
2023/12/31 22:14:59;;;;;;;68.23;31.80;;;4.60;99.90;;;;;;7525276;19;20021;-71
2023/12/31 22:17:34;;;;;;;67.13;33.75;;;4.60;99.90;;;;;;7059837;19;9999851;-73
2023/12/31 22:20:08;;;;;;;73.82;37.13;;;4.60;99.90;;;;;;7544769;19;20418;-72
2023/12/31 22:22:40;;;;;;;;;;;4.50;99.90;;;;;;7561335;19;20558;-72
2023/12/31 22:25:13;;;;;;;58.95;28.80;;;4.50;99.90;;;;;;7557566;19;19923;-72
2023/12/31 22:27:45;;;;;;;72.05;34.53;;;4.50;99.90;;;;;;7567347;19;20006;-72
2023/12/31 22:30:17;;;;;;;65.63;32.80;;;4.40;99.90;;;;;;7547538;19;20018;-71
2023/12/31 22:32:50;;;;;;;76.28;33.78;;;4.40;99.90;;;;;;7571138;19;20039;-73
2023/12/31 22:35:23;;;;;;;54.65;27.08;;;4.30;99.90;;;;;;7553403;19;21034;-72
2023/12/31 22:37:55;;;;;;;70.97;30.30;;;4.30;99.90;;;;;;7558048;19;20993;-71
2023/12/31 22:40:28;;;;;;;56.90;27.90;;;4.40;99.90;;;;;;7537879;19;22334;-71
2023/12/31 22:43:00;;;;;;;32.03;17.23;;;4.30;99.90;;;;;;7534938;19;20010;-71
2023/12/31 22:45:33;;;;;;;33.90;16.42;;;4.30;99.90;;;;;;7546252;19;20440;-70
2023/12/31 22:48:10;;;;;;;37.35;18.83;;;4.30;99.90;;;;;;7560183;19;20142;-70
2023/12/31 22:50:43;;;;;;;51.08;22.60;;;4.30;99.90;;;;;;7562301;19;20086;-70
2023/12/31 22:53:15;;;;;;;52.90;26.10;;;4.30;99.90;;;;;;7562942;19;20029;-71
2023/12/31 22:55:48;;;;;;;122.18;60.50;;;4.30;99.90;;;;;;7571263;19;20021;-70
2023/12/31 22:58:21;;;;;;;109.78;53.83;;;4.30;99.90;;;;;;7575256;19;20897;-70
2023/12/31 23:00:53;;;;;;;131.07;61.00;;;4.30;99.90;;;;;;7575871;19;20015;-70
2023/12/31 23:03:26;;;;;;;565.50;307.50;;;4.30;99.90;;;;;;7549099;19;20010;-72
2023/12/31 23:06:00;;;;;;;1262.55;707.67;;;4.30;99.90;;;;;;7576247;19;20118;-71
2023/12/31 23:08:34;;;;;;;1792.00;842.77;;;4.30;99.90;;;;;;7553410;19;20014;-71
2023/12/31 23:11:06;;;;;;;1999.90;962.53;;;4.30;99.90;;;;;;7568396;19;20971;-71
2023/12/31 23:13:40;;;;;;;1256.53;701.92;;;4.20;99.90;;;;;;7567515;19;20026;-70
2023/12/31 23:16:16;;;;;;;1896.63;920.58;;;4.20;99.90;;;;;;7558855;19;20063;-70
2023/12/31 23:18:49;;;;;;;1028.10;618.83;;;4.30;99.90;;;;;;7573951;19;20015;-72
2023/12/31 23:21:22;;;;;;;1999.90;999.90;;;4.30;99.90;;;;;;7557354;19;20178;-71
2023/12/31 23:23:54;;;;;;;930.50;562.15;;;4.30;99.90;;;;;;7556549;19;20529;-71
2023/12/31 23:26:26;;;;;;;854.58;518.88;;;4.30;99.90;;;;;;7562257;19;20014;-71
2023/12/31 23:28:58;;;;;;;747.38;461.33;;;4.30;99.90;;;;;;7561123;19;20018;-71
2023/12/31 23:31:31;;;;;;;743.30;442.65;;;4.30;99.90;;;;;;7566826;19;20023;-71
2023/12/31 23:34:03;;;;;;;863.05;522.10;;;4.30;99.90;;;;;;7573709;19;20312;-71
2023/12/31 23:36:37;;;;;;;725.40;441.10;;;4.40;99.90;;;;;;7573552;19;20015;-72
2023/12/31 23:39:21;;;;;;;686.55;408.27;;;4.30;99.90;;;;;;7565068;19;20635;-71
2023/12/31 23:41:53;;;;;;;642.90;380.55;;;4.40;99.90;;;;;;7575120;19;20018;-71
2023/12/31 23:44:26;;;;;;;618.22;386.40;;;4.40;99.90;;;;;;7555553;19;22269;-72
2023/12/31 23:47:02;;;;;;;743.15;456.88;;;4.40;99.90;;;;;;7562388;19;20056;-72
2023/12/31 23:49:34;;;;;;;;;;;4.40;99.90;;;;;;7552979;19;20018;-71
2023/12/31 23:52:07;;;;;;;536.47;347.35;;;4.40;99.90;;;;;;7549751;19;20234;-71
2023/12/31 23:54:39;;;;;;;318.02;166.05;;;4.40;99.90;;;;;;7558801;19;20014;-72
2023/12/31 23:57:15;;;;;;;305.05;153.93;;;4.30;99.90;;;;;;7551836;19;20029;-70
2023/12/31 23:59:47;;;;;;;311.52;154.57;;;4.30;99.90;;;;;;7535642;19;20014;-72
